createdAt,value
2023-02-25T00:01:10.870Z,6.07
2023-02-25T00:03:38.112Z,5.67
2023-02-25T00:06:07.657Z,5.29
2023-02-25T00:08:34.814Z,6.14
2023-02-25T00:11:04.680Z,6.35
2023-02-25T00:13:31.914Z,6.26
2023-02-25T00:15:58.370Z,5.87
2023-02-25T00:18:26.338Z,5.54
2023-02-25T00:20:52.964Z,5.78
2023-02-25T00:23:19.590Z,5.59
2023-02-25T00:25:46.313Z,5.79
2023-02-25T00:28:13.533Z,6.03
2023-02-25T00:30:41.086Z,5.92
2023-02-25T00:33:07.671Z,5.82
2023-02-25T00:35:34.579Z,5.33
2023-02-25T00:38:15.006Z,5.58
2023-02-25T00:40:42.340Z,5.47
2023-02-25T00:43:08.796Z,5.40
2023-02-25T00:45:35.559Z,5.89
2023-02-25T00:48:01.987Z,6.16
2023-02-25T00:50:28.390Z,5.66
2023-02-25T00:52:54.874Z,6.18
2023-02-25T00:55:21.368Z,5.99
2023-02-25T00:57:47.776Z,5.45
2023-02-25T01:00:17.317Z,5.81
2023-02-25T01:02:47.702Z,6.25
2023-02-25T01:05:15.434Z,5.92
2023-02-25T01:07:42.366Z,5.94
2023-02-25T01:10:10.666Z,6.32
2023-02-25T01:12:37.774Z,5.90
2023-02-25T01:15:05.081Z,6.42
2023-02-25T01:17:31.550Z,6.24
2023-02-25T01:19:58.007Z,7.20
2023-02-25T01:22:25.318Z,6.15
2023-02-25T01:24:55.858Z,6.13
2023-02-25T01:27:22.276Z,6.00
2023-02-25T01:29:48.738Z,5.88
2023-02-25T01:32:15.880Z,6.33
2023-02-25T01:34:42.607Z,5.85
2023-02-25T01:37:10.099Z,6.02
2023-02-25T01:39:36.541Z,6.30
2023-02-25T01:42:12.785Z,6.31
2023-02-25T01:45:28.202Z,5.57
2023-02-25T01:48:06.889Z,6.30
2023-02-25T01:50:42.055Z,6.40
2023-02-25T01:53:09.740Z,6.47
2023-02-25T01:55:38.790Z,6.68
2023-02-25T01:58:05.234Z,6.43
2023-02-25T02:00:33.123Z,6.37
2023-02-25T02:03:00.944Z,6.59
2023-02-25T02:05:40.924Z,6.57
2023-02-25T02:08:08.827Z,6.81
2023-02-25T02:10:35.270Z,6.48
2023-02-25T02:13:02.015Z,6.30
2023-02-25T02:15:32.260Z,6.82
2023-02-25T02:18:01.426Z,6.63
2023-02-25T02:20:40.716Z,6.40
2023-02-25T02:23:45.092Z,6.87
2023-02-25T02:26:33.305Z,6.72
2023-02-25T02:29:17.840Z,6.72
2023-02-25T02:31:53.555Z,6.70
2023-02-25T02:34:34.020Z,6.38
2023-02-25T02:37:18.794Z,6.57
2023-02-25T02:39:49.743Z,6.49
2023-02-25T02:42:34.813Z,6.62
2023-02-25T02:45:04.175Z,6.88
2023-02-25T02:47:42.033Z,6.34
2023-02-25T02:50:34.478Z,6.93
2023-02-25T02:53:09.860Z,6.86
2023-02-25T02:55:41.201Z,6.68
2023-02-25T02:58:16.338Z,6.97
2023-02-25T03:00:47.673Z,6.80
2023-02-25T03:03:22.053Z,5.85
2023-02-25T03:05:51.931Z,6.07
2023-02-25T03:08:31.058Z,6.30
2023-02-25T03:10:57.514Z,6.11
2023-02-25T03:13:23.957Z,6.44
2023-02-25T03:15:52.642Z,6.20
2023-02-25T03:18:55.019Z,6.50
2023-02-25T03:21:26.814Z,5.96
2023-02-25T03:23:53.838Z,6.18
2023-02-25T03:26:26.637Z,6.32
2023-02-25T03:28:53.426Z,6.38
2023-02-25T03:31:37.319Z,6.46
2023-02-25T03:34:08.180Z,6.32
2023-02-25T03:36:41.239Z,6.49
2023-02-25T03:39:19.582Z,6.20
2023-02-25T03:41:52.398Z,6.55
2023-02-25T03:44:26.038Z,6.73
2023-02-25T03:46:53.782Z,6.11
2023-02-25T03:49:27.129Z,5.93
2023-02-25T03:51:56.645Z,5.81
2023-02-25T03:54:23.170Z,6.01
2023-02-25T03:56:51.509Z,6.04
2023-02-25T03:59:19.214Z,6.51
2023-02-25T04:01:49.021Z,5.65
2023-02-25T04:04:15.568Z,6.54
2023-02-25T04:06:42.351Z,5.72
2023-02-25T04:09:08.750Z,6.24
2023-02-25T04:11:35.338Z,6.31
2023-02-25T04:14:01.817Z,5.95
2023-02-25T04:16:28.264Z,6.04
2023-02-25T04:18:54.727Z,5.71
2023-02-25T04:21:37.920Z,6.30
2023-02-25T04:24:06.749Z,6.35
2023-02-25T04:26:34.853Z,6.51
2023-02-25T04:29:01.541Z,6.38
2023-02-25T04:31:28.172Z,6.20
2023-02-25T04:33:57.166Z,6.67
2023-02-25T04:36:32.227Z,6.17
2023-02-25T04:39:01.640Z,6.28
2023-02-25T04:41:30.841Z,6.64
2023-02-25T04:43:58.037Z,6.37
2023-02-25T04:46:25.124Z,6.28
2023-02-25T04:48:51.851Z,6.29
2023-02-25T04:51:18.460Z,5.94
2023-02-25T04:53:46.660Z,6.33
2023-02-25T04:56:13.092Z,6.31
2023-02-25T04:58:39.897Z,6.21
2023-02-25T05:01:08.894Z,6.47
2023-02-25T05:03:36.402Z,6.05
2023-02-25T05:06:04.083Z,6.09
2023-02-25T05:08:30.621Z,5.75
2023-02-25T05:10:57.031Z,6.24
2023-02-25T05:13:23.610Z,5.68
2023-02-25T05:15:53.520Z,6.35
2023-02-25T05:18:49.352Z,6.01
2023-02-25T05:21:21.207Z,6.34
2023-02-25T05:23:49.559Z,6.28
2023-02-25T05:26:21.536Z,5.98
2023-02-25T05:28:58.075Z,6.24
2023-02-25T05:31:26.010Z,6.08
2023-02-25T05:33:53.282Z,6.04
2023-02-25T05:36:20.110Z,6.48
2023-02-25T05:39:06.187Z,6.17
2023-02-25T05:41:44.537Z,6.14
2023-02-25T05:44:11.677Z,6.47
2023-02-25T05:46:38.376Z,5.88
2023-02-25T05:49:04.826Z,5.48
2023-02-25T05:51:31.290Z,6.46
2023-02-25T05:53:57.685Z,6.61
2023-02-25T05:56:25.717Z,6.88
2023-02-25T05:58:52.808Z,6.28
2023-02-25T06:01:23.471Z,6.18
2023-02-25T06:03:51.694Z,6.50
2023-02-25T06:06:23.315Z,6.43
2023-02-25T06:08:50.662Z,6.59
2023-02-25T06:11:43.434Z,6.40
2023-02-25T06:14:09.880Z,5.47
2023-02-25T06:16:57.889Z,6.55
2023-02-25T06:19:26.334Z,6.52
2023-02-25T06:21:54.758Z,6.59
2023-02-25T06:24:22.505Z,6.17
2023-02-25T06:26:49.011Z,6.31
2023-02-25T06:29:15.435Z,6.20
2023-02-25T06:31:42.056Z,6.49
2023-02-25T06:34:08.706Z,6.49
2023-02-25T06:36:35.126Z,6.20
2023-02-25T06:39:01.668Z,6.26
2023-02-25T06:41:28.188Z,6.10
2023-02-25T06:43:54.968Z,6.27
2023-02-25T06:46:24.215Z,6.25
2023-02-25T06:48:51.290Z,5.98
2023-02-25T06:51:17.875Z,5.93
2023-02-25T06:53:45.231Z,6.27
2023-02-25T06:56:14.149Z,5.69
2023-02-25T06:58:40.935Z,5.60
2023-02-25T07:01:09.192Z,6.12
2023-02-25T07:03:36.337Z,5.96
2023-02-25T07:06:03.455Z,5.69
2023-02-25T07:08:30.966Z,6.11
2023-02-25T07:11:10.168Z,6.42
2023-02-25T07:13:36.883Z,5.14
2023-02-25T07:16:03.418Z,5.77
2023-02-25T07:18:29.848Z,6.14
2023-02-25T07:20:58.282Z,4.97
2023-02-25T07:23:24.789Z,5.22
2023-02-25T07:25:51.199Z,5.93
2023-02-25T07:28:17.597Z,6.01
2023-02-25T07:30:44.069Z,5.98
2023-02-25T07:33:10.522Z,5.64
2023-02-25T07:35:36.965Z,6.44
2023-02-25T07:38:03.397Z,5.78
2023-02-25T07:40:29.819Z,6.51
2023-02-25T07:42:56.238Z,6.16
2023-02-25T07:45:22.852Z,6.15
2023-02-25T07:47:52.968Z,5.96
2023-02-25T07:50:19.388Z,5.91
2023-02-25T07:52:45.813Z,5.96
2023-02-25T07:55:12.228Z,5.79
2023-02-25T07:57:38.655Z,6.27
2023-02-25T08:00:10.267Z,5.95
2023-02-25T08:03:09.172Z,6.02
2023-02-25T08:05:54.393Z,6.27
2023-02-25T08:08:32.821Z,5.43
2023-02-25T08:11:53.261Z,6.28
2023-02-25T08:14:40.280Z,6.31
2023-02-25T08:17:06.689Z,6.04
2023-02-25T08:19:33.208Z,5.47
2023-02-25T08:22:02.602Z,5.26
2023-02-25T08:24:29.061Z,6.11
2023-02-25T08:26:55.474Z,5.84
2023-02-25T08:29:22.319Z,6.30
2023-02-25T08:31:54.945Z,6.33
2023-02-25T08:34:21.508Z,6.54
2023-02-25T08:36:48.019Z,5.46
2023-02-25T08:39:41.051Z,5.77
2023-02-25T08:42:11.783Z,6.24
2023-02-25T08:44:38.375Z,5.73
2023-02-25T08:47:05.039Z,6.53
2023-02-25T08:49:31.898Z,6.38
2023-02-25T08:51:58.302Z,6.48
2023-02-25T08:54:24.746Z,6.19
2023-02-25T08:56:51.416Z,6.49
2023-02-25T08:59:17.969Z,6.46
2023-02-25T09:01:45.102Z,6.73
2023-02-25T09:04:14.440Z,5.60
2023-02-25T09:06:40.981Z,6.03
2023-02-25T09:09:07.674Z,6.50
2023-02-25T09:12:04.521Z,6.41
2023-02-25T09:14:22.250Z,6.80
2023-02-25T09:16:48.889Z,6.42
2023-02-25T09:19:18.275Z,6.81
2023-02-25T09:21:48.143Z,6.01
2023-02-25T09:24:15.831Z,6.71
2023-02-25T09:26:42.651Z,5.85
2023-02-25T09:29:09.270Z,6.71
2023-02-25T09:31:37.442Z,6.83
2023-02-25T09:34:07.381Z,5.90
2023-02-25T09:36:34.118Z,5.47
2023-02-25T09:39:00.827Z,6.34
2023-02-25T09:42:05.465Z,6.56
2023-02-25T09:44:36.229Z,5.91
2023-02-25T09:47:33.664Z,6.40
2023-02-25T09:50:05.004Z,6.83
2023-02-25T09:52:40.022Z,6.46
2023-02-25T09:55:21.285Z,6.43
2023-02-25T09:58:28.183Z,6.45
2023-02-25T10:01:01.684Z,6.54
2023-02-25T10:03:59.095Z,6.02
2023-02-25T10:06:28.478Z,6.40
2023-02-25T10:08:57.852Z,6.11
2023-02-25T10:11:51.317Z,5.51
2023-02-25T10:14:39.296Z,6.35
2023-02-25T10:17:16.036Z,6.41
2023-02-25T10:19:48.323Z,5.56
2023-02-25T10:22:49.071Z,5.90
2023-02-25T10:25:20.585Z,6.20
2023-02-25T10:28:10.754Z,5.89
2023-02-25T10:30:58.169Z,6.26
2023-02-25T10:33:26.637Z,6.77
2023-02-25T10:36:21.288Z,5.33
2023-02-25T10:38:50.600Z,5.34
2023-02-25T10:41:17.845Z,6.16
2023-02-25T10:43:45.453Z,6.76
2023-02-25T10:46:15.286Z,5.88
2023-02-25T10:48:47.980Z,6.70
2023-02-25T10:51:15.370Z,6.40
2023-02-25T10:54:03.350Z,6.83
2023-02-25T10:56:42.459Z,7.38
2023-02-25T10:59:23.955Z,7.26
2023-02-25T11:01:50.672Z,7.00
2023-02-25T11:04:45.065Z,6.28
2023-02-25T11:07:34.243Z,6.91
2023-02-25T11:10:13.251Z,5.45
2023-02-25T11:12:42.516Z,6.54
2023-02-25T11:15:18.344Z,7.30
2023-02-25T11:17:45.859Z,7.17
2023-02-25T11:20:23.826Z,6.29
2023-02-25T11:22:53.395Z,6.79
2023-02-25T11:25:23.778Z,6.53
2023-02-25T11:27:58.439Z,6.88
2023-02-25T11:30:32.018Z,6.66
2023-02-25T11:32:59.145Z,6.81
2023-02-25T11:35:37.344Z,6.30
2023-02-25T11:40:52.141Z,6.68
2023-02-25T11:45:52.946Z,6.85
2023-02-25T11:48:29.951Z,5.83
2023-02-25T11:51:24.040Z,6.91
2023-02-25T11:54:06.241Z,6.82
2023-02-25T11:56:39.376Z,6.88
2023-02-25T11:59:30.533Z,7.06
2023-02-25T12:02:20.667Z,6.77
2023-02-25T12:05:01.516Z,6.83
2023-02-25T12:07:55.477Z,7.08
2023-02-25T12:10:43.958Z,7.02
2023-02-25T12:13:32.014Z,6.97
2023-02-25T12:16:40.187Z,6.60
2023-02-25T12:19:28.161Z,6.72
2023-02-25T12:22:29.445Z,6.02
2023-02-25T12:25:17.406Z,6.09
2023-02-25T12:28:05.064Z,6.15
2023-02-25T12:30:53.350Z,6.08
2023-02-25T12:34:01.730Z,6.29
2023-02-25T12:36:48.700Z,6.16
2023-02-25T12:39:33.363Z,6.05
2023-02-25T12:42:11.793Z,6.41
2023-02-25T12:45:00.075Z,6.85
2023-02-25T12:47:36.492Z,6.35
2023-02-25T12:50:05.937Z,5.99
2023-02-25T12:52:44.470Z,6.08
2023-02-25T12:55:26.129Z,4.61
2023-02-25T12:58:03.833Z,4.98
2023-02-25T13:01:05.457Z,4.58
2023-02-25T13:03:56.116Z,4.96
2023-02-25T13:06:42.069Z,5.17
2023-02-25T13:09:32.030Z,5.70
2023-02-25T13:12:16.871Z,4.55
2023-02-25T13:14:43.298Z,5.54
2023-02-25T13:17:37.799Z,5.78
2023-02-25T13:20:25.783Z,5.62
2023-02-25T13:23:31.526Z,5.96
2023-02-25T13:26:00.721Z,6.14
2023-02-25T13:29:21.448Z,6.29
2023-02-25T13:31:56.480Z,5.81
2023-02-25T13:34:35.113Z,5.66
2023-02-25T13:37:19.983Z,5.29
2023-02-25T13:39:58.713Z,6.25
2023-02-25T13:42:53.249Z,5.22
2023-02-25T13:45:37.257Z,3.83
2023-02-25T13:48:33.464Z,4.55
2023-02-25T13:51:24.596Z,3.67
2023-02-25T13:54:26.647Z,3.74
2023-02-25T13:57:05.683Z,3.90
2023-02-25T13:59:53.615Z,4.44
2023-02-25T14:02:49.630Z,4.01
2023-02-25T14:05:34.597Z,5.05
2023-02-25T14:08:22.645Z,5.23
2023-02-25T14:11:07.730Z,5.14
2023-02-25T14:14:22.389Z,5.20
2023-02-25T14:17:08.558Z,5.42
2023-02-25T14:20:20.308Z,4.81
2023-02-25T14:22:57.270Z,4.32
2023-02-25T14:25:45.630Z,5.34
2023-02-25T14:28:25.921Z,4.57
2023-02-25T14:31:14.195Z,5.07
2023-02-25T14:33:58.899Z,5.03
2023-02-25T14:36:46.255Z,5.24
2023-02-25T14:39:33.818Z,5.70
2023-02-25T14:42:19.242Z,4.89
2023-02-25T14:45:14.409Z,4.72
2023-02-25T14:47:47.128Z,5.15
2023-02-25T14:50:20.756Z,5.56
2023-02-25T14:53:16.393Z,5.08
2023-02-25T14:55:54.682Z,5.36
2023-02-25T14:59:03.859Z,6.06
2023-02-25T15:01:44.290Z,5.50
2023-02-25T15:04:33.021Z,5.97
2023-02-25T15:07:22.682Z,6.09
2023-02-25T15:09:58.174Z,5.95
2023-02-25T15:12:43.125Z,6.40
2023-02-25T15:15:25.046Z,6.21
2023-02-25T15:18:25.394Z,6.43
2023-02-25T15:20:52.091Z,6.30
2023-02-25T15:23:20.448Z,5.99
2023-02-25T15:25:53.750Z,5.54
2023-02-25T15:28:29.317Z,5.41
2023-02-25T15:30:59.017Z,5.79
2023-02-25T15:33:45.442Z,6.15
2023-02-25T15:36:15.058Z,5.89
2023-02-25T15:38:52.208Z,5.38
2023-02-25T15:41:40.848Z,5.50
2023-02-25T15:44:13.048Z,6.23
2023-02-25T15:46:44.019Z,6.18
2023-02-25T15:49:22.176Z,5.34
2023-02-25T15:51:57.194Z,5.52
2023-02-25T15:54:29.642Z,6.00
2023-02-25T15:57:09.028Z,5.67
2023-02-25T15:59:52.877Z,5.50
2023-02-25T16:02:34.680Z,4.45
2023-02-25T16:05:02.872Z,5.89
2023-02-25T16:07:36.906Z,5.98
2023-02-25T16:10:23.610Z,4.79
2023-02-25T16:12:54.382Z,5.44
2023-02-25T16:15:39.286Z,6.04
2023-02-25T16:18:14.139Z,5.48
2023-02-25T16:20:48.266Z,4.77
2023-02-25T16:23:16.441Z,5.09
2023-02-25T16:25:57.980Z,5.68
2023-02-25T16:29:18.192Z,5.76
2023-02-25T16:32:02.026Z,5.79
2023-02-25T16:34:45.122Z,5.11
2023-02-25T16:37:32.100Z,5.01
2023-02-25T16:39:58.800Z,5.96
2023-02-25T16:42:25.858Z,5.23
2023-02-25T16:45:04.792Z,5.81
2023-02-25T16:47:38.916Z,5.45
2023-02-25T16:50:15.935Z,5.36
2023-02-25T16:52:48.197Z,5.94
2023-02-25T16:55:29.379Z,6.18
2023-02-25T16:58:05.399Z,5.89
2023-02-25T17:00:33.112Z,5.22
2023-02-25T17:03:02.559Z,5.64
2023-02-25T17:05:37.869Z,5.57
2023-02-25T17:08:14.399Z,4.69
2023-02-25T17:10:48.213Z,3.79
2023-02-25T17:13:30.048Z,3.43
2023-02-25T17:15:56.678Z,4.51
2023-02-25T17:19:03.902Z,3.48
2023-02-25T17:21:35.079Z,4.65
2023-02-25T17:24:11.196Z,4.58
2023-02-25T17:26:43.096Z,4.71
2023-02-25T17:29:12.089Z,4.40
2023-02-25T17:31:47.184Z,4.54
2023-02-25T17:34:17.562Z,3.65
2023-02-25T17:36:46.353Z,3.53
2023-02-25T17:39:19.214Z,4.30
2023-02-25T17:41:47.556Z,4.33
2023-02-25T17:44:35.002Z,4.34
2023-02-25T17:47:03.250Z,4.14
2023-02-25T17:49:32.988Z,4.51
2023-02-25T17:52:04.481Z,4.44
2023-02-25T17:54:35.541Z,5.07
2023-02-25T17:57:23.416Z,5.04
2023-02-25T17:59:53.379Z,5.10
2023-02-25T18:02:22.504Z,5.04
2023-02-25T18:04:53.179Z,4.88
2023-02-25T18:07:19.531Z,4.71
2023-02-25T18:09:46.044Z,4.16
2023-02-25T18:12:27.774Z,4.75
2023-02-25T18:15:15.945Z,5.09
2023-02-25T18:17:47.900Z,4.92
2023-02-25T18:20:32.745Z,5.03
2023-02-25T18:23:07.683Z,3.40
2023-02-25T18:25:35.473Z,4.90
2023-02-25T18:28:03.073Z,4.31
2023-02-25T18:30:32.029Z,5.12
2023-02-25T18:32:59.812Z,5.26
2023-02-25T18:35:29.853Z,4.66
2023-02-25T18:37:57.770Z,4.30
2023-02-25T18:40:27.068Z,4.75
2023-02-25T18:42:53.500Z,5.24
2023-02-25T18:45:23.034Z,5.00
2023-02-25T18:47:50.692Z,5.36
2023-02-25T18:50:18.134Z,5.29
2023-02-25T18:52:44.757Z,5.21
2023-02-25T18:55:31.704Z,3.86
2023-02-25T18:57:58.720Z,4.56
2023-02-25T19:00:29.837Z,4.64
2023-02-25T19:03:05.422Z,4.81
2023-02-25T19:05:31.968Z,4.85
2023-02-25T19:07:58.504Z,4.93
2023-02-25T19:10:30.905Z,3.77
2023-02-25T19:13:05.160Z,4.82
2023-02-25T19:15:32.245Z,4.57
2023-02-25T19:17:58.671Z,4.65
2023-02-25T19:20:25.207Z,3.95
2023-02-25T19:22:53.719Z,4.28
2023-02-25T19:25:22.271Z,4.74
2023-02-25T19:27:49.895Z,5.05
2023-02-25T19:30:21.030Z,4.68
2023-02-25T19:32:47.508Z,5.00
2023-02-25T19:35:13.968Z,4.85
2023-02-25T19:37:41.299Z,4.56
2023-02-25T19:40:11.164Z,5.16
2023-02-25T19:42:39.392Z,5.04
2023-02-25T19:45:08.459Z,5.04
2023-02-25T19:47:35.262Z,5.35
2023-02-25T19:50:04.769Z,5.14
2023-02-25T19:52:31.496Z,4.78
2023-02-25T19:54:57.897Z,5.18
2023-02-25T19:57:24.350Z,5.12
2023-02-25T19:59:50.868Z,5.11
2023-02-25T20:02:17.305Z,5.17
2023-02-25T20:04:43.802Z,5.30
2023-02-25T20:07:10.671Z,5.44
2023-02-25T20:09:37.217Z,5.39
2023-02-25T20:12:04.033Z,5.40
2023-02-25T20:14:32.932Z,5.14
2023-02-25T20:17:00.820Z,4.38
2023-02-25T20:19:30.326Z,4.95
2023-02-25T20:21:57.270Z,4.98
2023-02-25T20:24:23.882Z,5.16
2023-02-25T20:26:50.440Z,5.11
2023-02-25T20:29:17.215Z,4.17
2023-02-25T20:31:43.812Z,4.81
2023-02-25T20:34:17.915Z,4.72
2023-02-25T20:37:02.645Z,4.97
2023-02-25T20:39:41.342Z,4.56
2023-02-25T20:42:19.803Z,4.94
2023-02-25T20:44:50.278Z,4.50
2023-02-25T20:47:20.771Z,4.80
2023-02-25T20:49:47.732Z,4.90
2023-02-25T20:52:15.191Z,4.76
2023-02-25T20:54:42.175Z,4.81
2023-02-25T20:57:12.312Z,4.85
2023-02-25T20:59:38.823Z,4.78
2023-02-25T21:02:05.412Z,4.66
2023-02-25T21:04:32.024Z,4.78
2023-02-25T21:06:59.052Z,4.60
2023-02-25T21:09:25.696Z,4.52
2023-02-25T21:11:52.161Z,4.38
2023-02-25T21:14:18.591Z,4.29
2023-02-25T21:16:45.090Z,4.52
2023-02-25T21:19:11.541Z,4.33
2023-02-25T21:21:38.041Z,4.64
2023-02-25T21:24:05.878Z,4.67
2023-02-25T21:26:32.682Z,4.24
2023-02-25T21:28:59.777Z,4.36
2023-02-25T21:31:26.605Z,4.04
2023-02-25T21:33:53.308Z,4.09
2023-02-25T21:36:19.752Z,4.18
2023-02-25T21:38:46.221Z,3.77
2023-02-25T21:41:14.974Z,4.15
2023-02-25T21:43:42.688Z,4.00
2023-02-25T21:46:12.506Z,3.94
2023-02-25T21:48:40.436Z,4.07
2023-02-25T21:51:12.623Z,4.18
2023-02-25T21:53:39.025Z,4.17
2023-02-25T21:56:15.716Z,4.09
2023-02-25T21:58:42.364Z,4.19
2023-02-25T22:01:29.912Z,3.99
2023-02-25T22:03:57.540Z,4.17
2023-02-25T22:06:26.076Z,4.16
2023-02-25T22:08:54.038Z,3.92
2023-02-25T22:11:23.375Z,3.80
2023-02-25T22:13:50.660Z,3.97
2023-02-25T22:16:17.791Z,4.03
2023-02-25T22:18:44.787Z,4.02
2023-02-25T22:21:15.562Z,4.06
2023-02-25T22:23:45.914Z,4.03
2023-02-25T22:26:15.873Z,3.98
2023-02-25T22:28:44.136Z,4.01
2023-02-25T22:31:16.578Z,3.65
2023-02-25T22:33:43.866Z,3.86
2023-02-25T22:36:11.653Z,3.88
2023-02-25T22:38:40.368Z,3.98
2023-02-25T22:41:12.925Z,3.82
2023-02-25T22:43:39.513Z,3.67
2023-02-25T22:46:24.173Z,3.42
2023-02-25T22:48:51.744Z,3.49
2023-02-25T22:51:24.191Z,3.38
2023-02-25T22:53:51.180Z,2.25
2023-02-25T22:56:18.204Z,1.99
2023-02-25T22:58:44.845Z,3.34
2023-02-25T23:01:14.746Z,3.17
2023-02-25T23:03:44.218Z,2.57
2023-02-25T23:06:13.262Z,2.79
2023-02-25T23:08:39.714Z,2.66
2023-02-25T23:11:08.862Z,3.32
2023-02-25T23:13:35.599Z,3.47
2023-02-25T23:16:02.205Z,3.41
2023-02-25T23:18:28.655Z,2.92
2023-02-25T23:20:55.400Z,1.94
2023-02-25T23:23:21.838Z,2.71
2023-02-25T23:25:54.346Z,3.33
2023-02-25T23:28:20.777Z,2.83
2023-02-25T23:30:47.246Z,2.25
2023-02-25T23:33:13.661Z,2.34
2023-02-25T23:35:42.045Z,2.14
2023-02-25T23:38:09.399Z,2.91
2023-02-25T23:40:35.879Z,2.95
2023-02-25T23:43:02.324Z,2.77
2023-02-25T23:45:28.820Z,2.44
2023-02-25T23:47:55.281Z,3.29
2023-02-25T23:50:21.729Z,3.57
2023-02-25T23:52:48.485Z,1.88
2023-02-25T23:55:15.114Z,3.03
2023-02-25T23:57:41.947Z,3.47
